Time;durP1;ratioP1;P1;durP2;ratioP2;P2;SDS_P1;SDS_P2;PMS_P1;PMS_P2;Temp;Humidity;BMP_temperature;BMP_pressure;BME280_temperature;BME280_humidity;BME280_pressure;Samples;Min_cycle;Max_cycle;Signal;HPM_P1;HPM_P2
2023/07/23 00:02:19;;;;;;;5.18;1.90;;;15.00;99.90;;;;;;5044217;28;20382;-70
2023/07/23 00:04:44;;;;;;;5.88;1.77;;;15.00;99.90;;;;;;5045575;28;20410;-70
2023/07/23 00:07:10;;;;;;;4.80;2.25;;;15.00;99.90;;;;;;5073620;28;20036;-70
2023/07/23 00:09:36;;;;;;;4.47;2.00;;;15.00;99.90;;;;;;5043047;28;20072;-70
2023/07/23 00:12:02;;;;;;;5.25;1.60;;;15.00;99.90;;;;;;5022128;28;20047;-70
2023/07/23 00:14:28;;;;;;;7.43;2.47;;;15.00;99.90;;;;;;5044060;28;20044;-70
2023/07/23 00:16:53;;;;;;;4.72;1.70;;;15.00;99.90;;;;;;5073214;28;20044;-70
2023/07/23 00:19:19;;;;;;;6.35;2.28;;;15.00;99.90;;;;;;5043928;28;20041;-71
2023/07/23 00:21:48;;;;;;;3.80;1.73;;;15.00;99.90;;;;;;5076199;28;20035;-71
2023/07/23 00:24:15;;;;;;;7.70;2.25;;;14.90;99.90;;;;;;5042240;28;20040;-70
2023/07/23 00:26:41;;;;;;;6.25;2.53;;;14.90;99.90;;;;;;5076214;28;20052;-71
2023/07/23 00:29:06;;;;;;;5.88;2.15;;;14.90;99.90;;;;;;5041025;28;20163;-70
2023/07/23 00:31:32;;;;;;;3.97;1.88;;;14.90;99.90;;;;;;5059779;28;20044;-70
2023/07/23 00:33:58;;;;;;;4.88;2.00;;;14.90;99.90;;;;;;5040562;28;20033;-70
2023/07/23 00:36:23;;;;;;;6.53;2.08;;;14.90;99.90;;;;;;5044720;28;20037;-70
2023/07/23 00:38:49;;;;;;;6.10;2.25;;;14.90;99.90;;;;;;5071099;28;20379;-71
2023/07/23 00:41:14;;;;;;;6.30;2.08;;;14.90;99.90;;;;;;5075306;28;20040;-70
2023/07/23 00:43:40;;;;;;;6.25;2.15;;;14.90;99.90;;;;;;5040894;28;20041;-71
2023/07/23 00:46:07;;;;;;;5.25;1.92;;;14.90;99.90;;;;;;5042041;28;20039;-71
2023/07/23 00:48:32;;;;;;;4.20;2.15;;;14.90;99.90;;;;;;5044179;28;20041;-71
2023/07/23 00:50:58;;;;;;;4.68;1.77;;;14.90;99.90;;;;;;5036380;28;20408;-71
2023/07/23 00:53:25;;;;;;;8.60;2.30;;;14.90;99.90;;;;;;5042336;28;20036;-70
2023/07/23 00:55:52;;;;;;;4.25;1.92;;;14.80;99.90;;;;;;5076357;28;20040;-70
2023/07/23 00:58:18;;;;;;;6.10;1.70;;;14.90;99.90;;;;;;5040753;28;20037;-70
2023/07/23 01:00:44;;;;;;;4.75;2.10;;;14.90;99.90;;;;;;5024877;28;20074;-70
2023/07/23 01:03:09;;;;;;;4.65;2.55;;;14.90;99.90;;;;;;5025413;28;20062;-70
2023/07/23 01:05:38;;;;;;;6.07;2.72;;;14.80;99.90;;;;;;5023406;28;20418;-70
2023/07/23 01:08:05;;;;;;;4.82;1.88;;;14.80;99.90;;;;;;5039884;28;20049;-70
2023/07/23 01:10:33;;;;;;;5.45;2.08;;;14.90;99.90;;;;;;5042645;28;20082;-71
2023/07/23 01:12:59;;;;;;;5.72;2.15;;;14.80;99.90;;;;;;5042882;28;20049;-70
2023/07/23 01:15:26;;;;;;;5.68;2.22;;;14.80;99.90;;;;;;5040544;28;20392;-70
2023/07/23 01:17:52;;;;;;;6.18;2.22;;;14.80;99.90;;;;;;5044683;28;20048;-70
2023/07/23 01:20:18;;;;;;;7.47;2.50;;;14.80;99.90;;;;;;5040788;28;20037;-70
2023/07/23 01:22:44;;;;;;;7.03;2.58;;;14.70;99.90;;;;;;5042987;28;20086;-70
2023/07/23 01:25:09;;;;;;;5.15;1.80;;;14.80;99.90;;;;;;5040064;28;20041;-70
2023/07/23 01:27:35;;;;;;;6.25;2.00;;;14.80;99.90;;;;;;5041046;28;20060;-70
2023/07/23 01:30:00;;;;;;;4.80;2.15;;;14.80;99.90;;;;;;5040845;28;20110;-70
2023/07/23 01:32:26;;;;;;;5.78;2.13;;;14.80;99.90;;;;;;5054512;28;20033;-70
2023/07/23 01:34:52;;;;;;;4.70;1.90;;;14.80;99.90;;;;;;5042909;28;20033;-71
2023/07/23 01:37:19;;;;;;;7.32;2.70;;;14.80;99.90;;;;;;5040867;28;20170;-70
2023/07/23 01:39:44;;;;;;;6.70;1.98;;;14.70;99.90;;;;;;5052594;28;20041;-70
2023/07/23 01:42:11;;;;;;;6.47;2.30;;;14.80;99.90;;;;;;5041647;28;20379;-70
2023/07/23 01:44:37;;;;;;;7.32;2.58;;;14.70;99.90;;;;;;5022716;28;20534;-70
2023/07/23 01:47:03;;;;;;;4.13;1.75;;;14.80;99.90;;;;;;5043141;28;20029;-70
2023/07/23 01:49:29;;;;;;;7.03;2.28;;;14.80;99.90;;;;;;5043920;28;20037;-70
2023/07/23 01:51:55;;;;;;;4.57;1.77;;;14.70;99.90;;;;;;5039515;28;20394;-70
2023/07/23 01:54:20;;;;;;;4.63;1.90;;;14.80;99.90;;;;;;5039916;28;20517;-70
2023/07/23 01:56:47;;;;;;;5.85;2.13;;;14.80;99.90;;;;;;5037282;28;20048;-70
2023/07/23 01:59:13;;;;;;;4.65;2.15;;;14.80;99.90;;;;;;5039536;28;20691;-70
2023/07/23 02:01:39;;;;;;;5.07;2.03;;;14.80;99.90;;;;;;5040118;28;20037;-70
2023/07/23 02:04:04;;;;;;;4.93;1.90;;;14.70;99.90;;;;;;5040403;28;20118;-70
2023/07/23 02:06:30;;;;;;;3.90;1.65;;;14.70;99.90;;;;;;5038128;28;20045;-70
2023/07/23 02:08:55;;;;;;;5.25;2.22;;;14.70;99.90;;;;;;5038660;28;20037;-70
2023/07/23 02:11:21;;;;;;;5.53;2.13;;;14.70;99.90;;;;;;5042215;28;20155;-71
2023/07/23 02:13:47;;;;;;;4.97;1.90;;;14.70;99.90;;;;;;5044775;28;20487;-70
2023/07/23 02:16:17;;;;;;;5.40;2.40;;;14.70;99.90;;;;;;5028605;28;20414;-70
2023/07/23 02:18:43;;;;;;;6.97;2.13;;;14.70;99.90;;;;;;5061311;28;20151;-70
2023/07/23 02:21:08;;;;;;;8.77;2.35;;;14.80;99.90;;;;;;5042591;28;20131;-70
2023/07/23 02:23:34;;;;;;;5.13;1.80;;;14.80;99.90;;;;;;5027136;28;20056;-70
2023/07/23 02:25:59;;;;;;;8.05;2.10;;;14.80;99.90;;;;;;5026980;28;20052;-70
2023/07/23 02:28:25;;;;;;;5.85;2.20;;;14.80;99.90;;;;;;5040882;28;20041;-70
2023/07/23 02:31:00;;;;;;;7.43;2.28;;;14.80;99.90;;;;;;5039787;28;20640;-70
2023/07/23 02:33:26;;;;;;;4.20;1.88;;;14.80;99.90;;;;;;5042318;28;20149;-70
2023/07/23 02:35:52;;;;;;;5.90;2.20;;;14.80;99.90;;;;;;5044275;28;20117;-70
2023/07/23 02:38:18;;;;;;;5.05;2.22;;;14.80;99.90;;;;;;5043517;28;20051;-70
2023/07/23 02:40:43;;;;;;;7.03;2.25;;;14.80;99.90;;;;;;5075654;28;20033;-70
2023/07/23 02:43:12;;;;;;;6.30;1.83;;;14.80;99.90;;;;;;5041225;28;20095;-70
2023/07/23 02:45:38;;;;;;;8.73;2.78;;;14.80;99.90;;;;;;5042725;28;20041;-70
2023/07/23 02:48:03;;;;;;;5.55;2.10;;;14.80;99.90;;;;;;5044202;28;20040;-71
2023/07/23 02:50:29;;;;;;;5.75;2.63;;;14.80;99.90;;;;;;5041119;28;20505;-70
2023/07/23 02:52:54;;;;;;;5.85;2.58;;;14.80;99.90;;;;;;5042693;28;20037;-71
2023/07/23 02:55:22;;;;;;;5.75;2.17;;;14.80;99.90;;;;;;5042772;28;20042;-71
2023/07/23 02:57:49;;;;;;;6.05;2.60;;;14.80;99.90;;;;;;5075360;28;20040;-70
2023/07/23 03:00:15;;;;;;;4.82;2.47;;;14.80;99.90;;;;;;5022861;28;20103;-71
2023/07/23 03:02:40;;;;;;;8.32;2.67;;;14.80;99.90;;;;;;5026786;28;20036;-71
2023/07/23 03:05:07;;;;;;;8.60;2.38;;;14.80;99.90;;;;;;5044437;28;20070;-70
2023/07/23 03:07:34;;;;;;;4.82;1.80;;;14.80;99.90;;;;;;5042226;28;20040;-70
2023/07/23 03:10:00;;;;;;;6.40;2.63;;;14.80;99.90;;;;;;5043637;28;20486;-70
2023/07/23 03:12:25;;;;;;;5.72;2.53;;;14.80;99.90;;;;;;5041089;28;20040;-70
2023/07/23 03:14:53;;;;;;;5.13;2.47;;;14.80;99.90;;;;;;5043609;28;20522;-71
2023/07/23 03:17:18;;;;;;;5.90;2.40;;;14.80;99.90;;;;;;5056365;28;20083;-71
2023/07/23 03:19:44;;;;;;;4.97;2.17;;;14.80;99.90;;;;;;5039055;28;20041;-71
2023/07/23 03:22:09;;;;;;;5.53;2.35;;;14.80;99.90;;;;;;5042612;28;20053;-71
2023/07/23 03:24:35;;;;;;;12.23;2.30;;;14.80;99.90;;;;;;5043272;28;20212;-71
2023/07/23 03:27:00;;;;;;;6.30;2.63;;;14.80;99.90;;;;;;5040681;28;20545;-71
2023/07/23 03:29:26;;;;;;;5.75;2.28;;;14.80;99.90;;;;;;5042970;28;20033;-71
2023/07/23 03:31:52;;;;;;;9.65;2.83;;;14.80;99.90;;;;;;5043369;28;20029;-71
2023/07/23 03:34:17;;;;;;;6.18;2.60;;;14.80;99.90;;;;;;5041274;28;20132;-71
2023/07/23 03:36:43;;;;;;;6.70;2.63;;;14.80;99.90;;;;;;5039862;28;20048;-71
2023/07/23 03:39:08;;;;;;;5.80;2.45;;;14.80;99.90;;;;;;5042993;28;20045;-71
2023/07/23 03:41:34;;;;;;;9.95;2.72;;;14.80;99.90;;;;;;5038399;28;20041;-70
2023/07/23 03:44:00;;;;;;;5.22;2.35;;;14.80;99.90;;;;;;5042984;28;20128;-71
2023/07/23 03:46:25;;;;;;;7.43;2.30;;;14.80;99.90;;;;;;5040537;28;20044;-71
2023/07/23 03:48:51;;;;;;;4.72;2.35;;;14.80;99.90;;;;;;5042126;28;20036;-71
2023/07/23 03:51:19;;;;;;;6.82;2.72;;;14.80;99.90;;;;;;5039687;28;20503;-71
2023/07/23 03:53:45;;;;;;;5.80;2.55;;;14.80;99.90;;;;;;5043414;28;20033;-71
2023/07/23 03:56:11;;;;;;;6.30;2.38;;;14.80;99.90;;;;;;5038268;28;20036;-70
2023/07/23 03:58:36;;;;;;;5.93;2.83;;;14.80;99.90;;;;;;5043020;28;20087;-70
2023/07/23 04:01:02;;;;;;;6.50;2.40;;;14.80;99.90;;;;;;5040603;28;20490;-71
2023/07/23 04:03:27;;;;;;;7.55;2.75;;;14.80;99.90;;;;;;5035774;28;20055;-71
2023/07/23 04:05:53;;;;;;;6.22;2.78;;;14.80;99.90;;;;;;5041375;28;20058;-71
2023/07/23 04:08:18;;;;;;;5.85;2.38;;;14.80;99.90;;;;;;5041327;28;20079;-71
2023/07/23 04:10:44;;;;;;;5.57;2.58;;;14.80;99.90;;;;;;5041760;28;20056;-71
2023/07/23 04:13:10;;;;;;;6.47;2.40;;;14.90;99.90;;;;;;5039360;28;20838;-71
2023/07/23 04:15:37;;;;;;;7.50;2.58;;;14.80;99.90;;;;;;5037603;28;20402;-71
2023/07/23 04:18:02;;;;;;;6.80;2.60;;;14.80;99.90;;;;;;5040216;28;20052;-71
2023/07/23 04:20:28;;;;;;;5.22;2.70;;;14.80;99.90;;;;;;5041842;28;20045;-71
2023/07/23 04:22:53;;;;;;;8.07;2.65;;;14.80;99.90;;;;;;5040959;28;20040;-71
2023/07/23 04:25:19;;;;;;;6.22;2.60;;;14.80;99.90;;;;;;5042109;28;20495;-71
2023/07/23 04:27:44;;;;;;;7.25;2.67;;;14.90;99.90;;;;;;5041488;28;20475;-71
2023/07/23 04:30:10;;;;;;;7.65;2.50;;;14.80;99.90;;;;;;5073886;28;20052;-71
2023/07/23 04:32:36;;;;;;;8.13;2.63;;;14.90;99.90;;;;;;5043704;28;20041;-71
2023/07/23 04:35:02;;;;;;;9.77;2.63;;;14.90;99.90;;;;;;5037844;28;20045;-71
2023/07/23 04:37:28;;;;;;;6.07;2.30;;;14.90;99.90;;;;;;5041746;28;20398;-71
2023/07/23 04:39:53;;;;;;;5.93;2.70;;;14.90;99.90;;;;;;5039321;28;20049;-71
2023/07/23 04:42:19;;;;;;;5.30;2.20;;;14.90;99.90;;;;;;5039816;28;20501;-71
2023/07/23 04:44:45;;;;;;;6.50;3.05;;;14.90;99.90;;;;;;5055378;28;20048;-71
2023/07/23 04:47:10;;;;;;;7.68;2.35;;;14.90;99.90;;;;;;5041586;28;20075;-71
2023/07/23 04:49:36;;;;;;;6.32;2.85;;;14.90;99.90;;;;;;5038710;28;20036;-70
2023/07/23 04:52:02;;;;;;;6.47;2.70;;;14.90;99.90;;;;;;5072972;28;20135;-71
2023/07/23 04:54:27;;;;;;;7.18;2.75;;;14.90;99.90;;;;;;5040904;28;20076;-70
2023/07/23 04:56:53;;;;;;;7.13;2.55;;;14.90;99.90;;;;;;5023463;28;20107;-71
2023/07/23 04:59:19;;;;;;;6.00;2.80;;;14.90;99.90;;;;;;5039012;28;20067;-71
2023/07/23 05:01:44;;;;;;;7.10;2.95;;;14.90;99.90;;;;;;5021094;28;20036;-71
2023/07/23 05:04:10;;;;;;;9.18;3.28;;;14.90;99.90;;;;;;5035433;28;20611;-71
2023/07/23 05:06:35;;;;;;;6.68;2.70;;;14.90;99.90;;;;;;5038785;28;20060;-71
2023/07/23 05:09:01;;;;;;;5.88;2.80;;;14.90;99.90;;;;;;5040833;28;20450;-71
2023/07/23 05:11:26;;;;;;;6.72;2.60;;;14.90;99.90;;;;;;5039395;28;20045;-70
2023/07/23 05:13:52;;;;;;;6.80;3.13;;;14.90;99.90;;;;;;5040549;28;20037;-71
2023/07/23 05:16:17;;;;;;;9.18;3.33;;;14.90;99.90;;;;;;5038585;28;20043;-71
2023/07/23 05:18:43;;;;;;;7.55;3.17;;;14.90;99.90;;;;;;5040953;28;20127;-71
2023/07/23 05:21:08;;;;;;;5.93;2.85;;;14.90;99.90;;;;;;5041264;28;20155;-71
2023/07/23 05:23:34;;;;;;;6.28;2.70;;;14.90;99.90;;;;;;5039878;28;20048;-71
2023/07/23 05:26:00;;;;;;;7.07;3.30;;;14.90;99.90;;;;;;5038090;28;20064;-71
2023/07/23 05:28:26;;;;;;;7.20;2.92;;;14.90;99.90;;;;;;5037301;28;20041;-71
2023/07/23 05:30:58;;;;;;;6.80;2.80;;;14.90;99.90;;;;;;5040358;28;20064;-71
2023/07/23 05:33:23;;;;;;;8.02;3.05;;;14.90;99.90;;;;;;5000475;28;20045;-71
2023/07/23 05:35:49;;;;;;;8.00;2.90;;;14.90;99.90;;;;;;5038786;28;20052;-71
2023/07/23 05:38:15;;;;;;;7.40;3.05;;;15.00;99.90;;;;;;5022237;28;20126;-71
2023/07/23 05:40:40;;;;;;;7.85;3.50;;;15.00;99.90;;;;;;5039826;28;20044;-71
2023/07/23 05:43:08;;;;;;;6.78;3.40;;;15.00;99.90;;;;;;5038397;28;20505;-71
2023/07/23 05:45:34;;;;;;;10.23;3.75;;;15.00;99.90;;;;;;5041294;28;20056;-71
2023/07/23 05:48:00;;;;;;;9.43;4.28;;;15.00;99.90;;;;;;5036471;28;20038;-71
2023/07/23 05:50:25;;;;;;;7.80;3.33;;;15.00;99.90;;;;;;5042234;28;20460;-71
2023/07/23 05:52:51;;;;;;;7.55;3.20;;;15.00;99.90;;;;;;5045878;28;20394;-71
2023/07/23 05:55:16;;;;;;;7.40;3.20;;;15.10;99.90;;;;;;5045727;28;20124;-71
2023/07/23 05:57:42;;;;;;;8.55;3.50;;;15.10;99.90;;;;;;5040331;28;20037;-71
2023/07/23 06:00:08;;;;;;;8.40;3.17;;;15.10;99.90;;;;;;5024778;28;20037;-71
2023/07/23 06:02:34;;;;;;;9.90;3.70;;;15.10;99.90;;;;;;5073134;28;20132;-71
2023/07/23 06:04:59;;;;;;;7.20;3.10;;;15.10;99.90;;;;;;5042952;28;20194;-71
2023/07/23 06:07:25;;;;;;;7.38;2.78;;;15.10;99.90;;;;;;5043363;28;20072;-71
2023/07/23 06:09:50;;;;;;;5.93;2.97;;;15.20;99.90;;;;;;5075493;28;20045;-71
2023/07/23 06:12:16;;;;;;;8.15;3.33;;;15.20;99.90;;;;;;5042671;28;20045;-71
2023/07/23 06:14:41;;;;;;;6.40;3.55;;;15.20;99.90;;;;;;5044889;28;20061;-71
2023/07/23 06:17:07;;;;;;;6.53;3.20;;;15.20;99.90;;;;;;5043050;28;20517;-71
2023/07/23 06:19:33;;;;;;;7.05;3.08;;;15.20;99.90;;;;;;5042856;28;20090;-71
2023/07/23 06:21:58;;;;;;;9.25;3.38;;;15.30;99.90;;;;;;5042640;28;20075;-71
2023/07/23 06:24:24;;;;;;;6.72;3.08;;;15.30;99.90;;;;;;5041333;28;20048;-71
2023/07/23 06:26:50;;;;;;;10.57;3.65;;;15.30;99.90;;;;;;5041709;28;20602;-71
2023/07/23 06:29:15;;;;;;;8.57;3.33;;;15.30;99.90;;;;;;5041311;28;20216;-71
2023/07/23 06:31:41;;;;;;;6.20;3.13;;;15.30;99.90;;;;;;5038786;28;20037;-70
2023/07/23 06:34:07;;;;;;;7.22;3.50;;;15.30;99.90;;;;;;5042325;28;20036;-71
2023/07/23 06:36:33;;;;;;;7.50;3.17;;;15.30;99.90;;;;;;5025610;28;20033;-71
2023/07/23 06:38:58;;;;;;;8.00;3.72;;;15.30;99.90;;;;;;5044362;28;20059;-71
2023/07/23 06:41:24;;;;;;;8.05;3.38;;;15.30;99.90;;;;;;5040808;28;20051;-71
2023/07/23 06:43:49;;;;;;;7.15;3.53;;;15.40;99.90;;;;;;5042432;28;20056;-71
2023/07/23 06:46:19;;;;;;;8.27;3.20;;;15.40;99.90;;;;;;5041790;28;20041;-69
2023/07/23 06:48:45;;;;;;;6.97;3.22;;;15.40;99.90;;;;;;5041056;28;20037;-71
2023/07/23 06:51:11;;;;;;;9.43;3.10;;;15.40;99.90;;;;;;5022990;28;20048;-71
2023/07/23 06:53:36;;;;;;;7.68;3.17;;;15.40;99.90;;;;;;5039535;28;20041;-71
2023/07/23 06:56:03;;;;;;;6.93;3.17;;;15.40;99.90;;;;;;5070344;28;20804;-70
2023/07/23 06:58:32;;;;;;;7.20;3.15;;;15.40;99.90;;;;;;5038075;28;20103;-70
2023/07/23 07:00:57;;;;;;;7.88;3.47;;;15.40;99.90;;;;;;5023361;28;20125;-70
2023/07/23 07:03:23;;;;;;;9.65;3.88;;;15.50;99.90;;;;;;5036442;28;20123;-71
2023/07/23 07:05:49;;;;;;;6.95;3.10;;;15.50;99.90;;;;;;5035918;28;20588;-71
2023/07/23 07:08:14;;;;;;;8.50;3.40;;;15.50;99.90;;;;;;5015131;28;20080;-71
2023/07/23 07:10:40;;;;;;;6.53;3.13;;;15.50;99.90;;;;;;5037234;28;20040;-71
2023/07/23 07:13:06;;;;;;;6.32;3.50;;;15.50;99.90;;;;;;5039324;28;20033;-71
2023/07/23 07:15:31;;;;;;;7.60;3.50;;;15.50;99.90;;;;;;5068380;28;20041;-71
2023/07/23 07:17:57;;;;;;;9.40;3.35;;;15.50;99.90;;;;;;5038572;28;20044;-71
2023/07/23 07:20:22;;;;;;;10.98;3.38;;;15.50;99.90;;;;;;5037262;28;20055;-71
2023/07/23 07:22:48;;;;;;;7.05;3.15;;;15.60;99.90;;;;;;5050685;28;20041;-71
2023/07/23 07:25:14;;;;;;;8.43;3.17;;;15.60;99.90;;;;;;5040468;28;20043;-71
2023/07/23 07:27:39;;;;;;;8.77;3.50;;;15.60;99.90;;;;;;5038640;28;20088;-72
2023/07/23 07:30:06;;;;;;;7.78;2.83;;;15.60;99.90;;;;;;5069537;28;20759;-71
2023/07/23 07:32:31;;;;;;;9.07;3.42;;;15.60;99.90;;;;;;5038624;28;20033;-72
2023/07/23 07:34:57;;;;;;;7.45;3.80;;;15.70;99.90;;;;;;5038696;28;20041;-71
2023/07/23 07:37:23;;;;;;;8.48;3.33;;;15.60;99.90;;;;;;5037439;28;20044;-71
2023/07/23 07:39:48;;;;;;;7.00;3.55;;;15.70;99.90;;;;;;5038964;28;20044;-71
2023/07/23 07:42:14;;;;;;;7.90;3.33;;;15.70;99.90;;;;;;5052273;28;20052;-71
2023/07/23 07:44:39;;;;;;;8.82;3.40;;;15.70;99.90;;;;;;5069660;28;20406;-71
2023/07/23 07:47:05;;;;;;;8.13;3.33;;;15.70;99.90;;;;;;5072530;28;20213;-72
2023/07/23 07:49:31;;;;;;;7.35;3.30;;;15.80;99.90;;;;;;5039927;28;20274;-71
2023/07/23 07:51:56;;;;;;;10.15;3.67;;;15.70;99.90;;;;;;5042133;28;20410;-71
2023/07/23 07:54:22;;;;;;;7.03;2.90;;;15.70;99.90;;;;;;5076173;28;20036;-71
2023/07/23 07:56:47;;;;;;;9.18;3.05;;;15.70;99.90;;;;;;5072826;28;20098;-71
2023/07/23 07:59:13;;;;;;;7.07;2.90;;;15.70;99.90;;;;;;5053463;28;20041;-71
2023/07/23 08:01:39;;;;;;;7.32;3.10;;;15.70;99.90;;;;;;5028125;28;20113;-70
2023/07/23 08:04:07;;;;;;;7.60;3.47;;;15.70;99.90;;;;;;5039860;28;20029;-70
2023/07/23 08:06:39;;;;;;;8.65;3.10;;;15.70;99.90;;;;;;5038423;28;20598;-71
2023/07/23 08:09:08;;;;;;;7.10;3.15;;;15.70;99.90;;;;;;5033383;28;20573;-71
2023/07/23 08:11:35;;;;;;;7.82;2.45;;;15.70;99.90;;;;;;5022921;28;20072;-71
2023/07/23 08:14:03;;;;;;;7.63;2.70;;;15.60;99.90;;;;;;5042798;28;20289;-71
2023/07/23 08:16:30;;;;;;;12.85;2.83;;;15.70;99.90;;;;;;5036742;28;20041;-71
2023/07/23 08:18:56;;;;;;;7.82;3.03;;;15.70;99.90;;;;;;5043961;28;20033;-71
2023/07/23 08:21:21;;;;;;;8.25;3.47;;;15.70;99.90;;;;;;5042280;28;20039;-71
2023/07/23 08:23:47;;;;;;;8.88;3.75;;;15.70;99.90;;;;;;5036885;28;20410;-71
2023/07/23 08:26:16;;;;;;;9.00;3.35;;;15.70;99.90;;;;;;5046798;28;20613;-71
2023/07/23 08:28:51;;;;;;;6.88;3.30;;;15.70;99.90;;;;;;5065436;28;20512;-71
2023/07/23 08:31:18;;;;;;;8.05;3.45;;;15.70;99.90;;;;;;5016608;28;22291;-70
2023/07/23 08:33:46;;;;;;;6.70;2.88;;;15.70;99.90;;;;;;5018375;28;20376;-71
2023/07/23 08:36:12;;;;;;;8.23;3.13;;;15.80;99.90;;;;;;5039084;28;20456;-71
2023/07/23 08:38:38;;;;;;;9.15;3.33;;;15.80;99.90;;;;;;5017994;28;20042;-71
2023/07/23 08:41:15;;;;;;;7.68;2.97;;;15.80;99.90;;;;;;5022164;28;20620;-71
2023/07/23 08:44:19;;;;;;;9.68;2.80;;;15.80;99.90;;;;;;5036830;28;20577;-71
2023/07/23 08:46:46;;;;;;;7.10;3.05;;;15.80;99.90;;;;;;5034579;28;20045;-71
2023/07/23 08:49:16;;;;;;;6.60;2.67;;;15.90;99.90;;;;;;5037766;28;21117;-71
2023/07/23 08:51:43;;;;;;;8.55;3.10;;;15.80;99.90;;;;;;5069868;28;20509;-72
2023/07/23 08:54:10;;;;;;;7.20;2.78;;;15.90;99.90;;;;;;5040147;28;20029;-71
2023/07/23 08:56:41;;;;;;;7.35;2.75;;;15.80;99.90;;;;;;5070188;28;20033;-69
2023/07/23 08:59:08;;;;;;;8.32;2.63;;;15.90;99.90;;;;;;5032709;28;20099;-72
2023/07/23 09:01:39;;;;;;;8.30;3.00;;;15.80;99.90;;;;;;5070154;28;20060;-71
2023/07/23 09:04:10;;;;;;;6.85;2.90;;;15.80;99.90;;;;;;5032823;28;20656;-71
2023/07/23 09:06:36;;;;;;;6.32;2.63;;;15.80;99.90;;;;;;5037186;28;20033;-71
2023/07/23 09:09:06;;;;;;;5.70;2.55;;;15.80;99.90;;;;;;5034765;28;20037;-71
2023/07/23 09:11:32;;;;;;;8.60;2.85;;;15.80;99.90;;;;;;5038416;28;20156;-71
2023/07/23 09:14:14;;;;;;;7.13;2.70;;;15.80;99.90;;;;;;5038060;28;20041;-71
2023/07/23 09:16:43;;;;;;;5.65;2.50;;;15.80;99.90;;;;;;5036499;28;20044;-72
2023/07/23 09:19:10;;;;;;;8.38;2.75;;;15.80;99.90;;;;;;5034822;28;20049;-72
2023/07/23 09:21:38;;;;;;;5.07;2.35;;;15.70;99.90;;;;;;5038368;28;20079;-71
2023/07/23 09:24:06;;;;;;;5.63;2.85;;;15.70;99.90;;;;;;5040573;28;20037;-70
2023/07/23 09:26:32;;;;;;;7.93;2.45;;;15.70;99.90;;;;;;5020565;28;20060;-72
2023/07/23 09:29:03;;;;;;;7.20;2.85;;;15.80;99.90;;;;;;5036275;28;20040;-72
2023/07/23 09:31:31;;;;;;;8.73;2.53;;;15.80;99.90;;;;;;5074442;28;20045;-71
2023/07/23 09:33:59;;;;;;;6.40;2.65;;;15.80;99.90;;;;;;5039744;28;20869;-71
2023/07/23 09:36:25;;;;;;;7.00;2.30;;;15.80;99.90;;;;;;5041600;28;20401;-71
2023/07/23 09:39:02;;;;;;;5.85;2.33;;;15.90;99.90;;;;;;5046498;28;20378;-71
2023/07/23 09:41:41;;;;;;;6.55;2.63;;;15.90;99.90;;;;;;5042914;28;20136;-71
2023/07/23 09:44:09;;;;;;;4.93;2.13;;;15.90;99.90;;;;;;5043008;28;20554;-71
2023/07/23 09:46:36;;;;;;;5.05;2.50;;;15.90;99.90;;;;;;5046596;28;20121;-71
2023/07/23 09:49:02;;;;;;;6.22;2.15;;;15.90;99.90;;;;;;5028884;28;20091;-72
2023/07/23 09:51:30;;;;;;;5.28;2.13;;;15.90;99.90;;;;;;5044718;28;20106;-71
2023/07/23 09:54:00;;;;;;;7.07;2.75;;;15.90;99.90;;;;;;5046869;28;20343;-71
2023/07/23 09:56:27;;;;;;;4.53;2.33;;;15.90;99.90;;;;;;5043854;28;20033;-72
2023/07/23 09:58:53;;;;;;;4.70;2.15;;;15.90;99.90;;;;;;5071605;28;20039;-72
2023/07/23 10:01:20;;;;;;;6.18;2.05;;;16.00;99.90;;;;;;5027906;28;20065;-72
2023/07/23 10:03:47;;;;;;;4.90;2.25;;;16.00;99.90;;;;;;5026542;28;20041;-74
2023/07/23 10:06:20;;;;;;;5.63;2.45;;;16.00;99.90;;;;;;5043665;28;20032;-72
2023/07/23 10:08:47;;;;;;;5.57;2.20;;;16.00;99.90;;;;;;5044153;28;20287;-72
2023/07/23 10:11:14;;;;;;;5.93;2.28;;;16.00;99.90;;;;;;5044163;28;20082;-71
2023/07/23 10:13:42;;;;;;;5.57;2.00;;;16.00;99.90;;;;;;5040337;28;20286;-71
2023/07/23 10:16:11;;;;;;;4.30;1.90;;;16.00;99.90;;;;;;5044816;28;20033;-72
2023/07/23 10:18:40;;;;;;;4.55;1.90;;;16.00;99.90;;;;;;5046212;28;20405;-71
2023/07/23 10:21:08;;;;;;;3.88;1.92;;;16.00;99.90;;;;;;5045824;28;20040;-71
2023/07/23 10:23:35;;;;;;;6.68;1.92;;;16.00;99.90;;;;;;5045492;28;20041;-72
2023/07/23 10:26:23;;;;;;;4.63;2.03;;;16.00;99.90;;;;;;5045652;28;20202;-72
2023/07/23 10:28:58;;;;;;;4.43;2.17;;;16.00;99.90;;;;;;5027020;28;20458;-72
2023/07/23 10:31:28;;;;;;;4.70;2.20;;;16.00;99.90;;;;;;5044911;28;20043;-71
2023/07/23 10:33:55;;;;;;;5.18;2.10;;;16.00;99.90;;;;;;5077814;28;20043;-71
2023/07/23 10:36:23;;;;;;;10.43;2.47;;;16.00;99.90;;;;;;5077886;28;20177;-71
2023/07/23 10:39:15;;;;;;;5.13;2.38;;;16.00;99.90;;;;;;5044003;28;20482;-72
2023/07/23 10:41:55;;;;;;;4.53;2.30;;;16.00;99.90;;;;;;5017570;28;20055;-72
2023/07/23 10:44:27;;;;;;;5.18;2.00;;;16.00;99.90;;;;;;5045635;28;20499;-72
2023/07/23 10:46:53;;;;;;;5.22;2.10;;;16.00;99.90;;;;;;5043885;28;20072;-72
2023/07/23 10:49:29;;;;;;;5.95;2.50;;;16.00;99.90;;;;;;5050340;28;20072;-72
2023/07/23 10:52:12;;;;;;;5.72;2.33;;;16.10;99.90;;;;;;5047251;28;20400;-72
2023/07/23 10:54:38;;;;;;;5.40;2.13;;;16.10;99.90;;;;;;5044704;28;20028;-72
2023/07/23 10:57:06;;;;;;;4.07;2.47;;;16.10;99.90;;;;;;5039534;28;20545;-72
2023/07/23 10:59:31;;;;;;;5.32;2.28;;;16.10;99.90;;;;;;5043989;28;20041;-72
2023/07/23 11:01:57;;;;;;;5.95;2.30;;;16.10;99.90;;;;;;5044959;28;20048;-71
2023/07/23 11:04:25;;;;;;;5.00;1.90;;;16.20;99.90;;;;;;5055067;28;20043;-72
2023/07/23 11:07:02;;;;;;;7.28;2.72;;;16.10;99.90;;;;;;5045387;28;20053;-72
2023/07/23 11:09:30;;;;;;;6.22;2.33;;;16.10;99.90;;;;;;5045101;28;20094;-72
2023/07/23 11:11:57;;;;;;;5.55;2.58;;;16.10;99.90;;;;;;5025790;28;20111;-72
2023/07/23 11:14:28;;;;;;;4.50;1.80;;;16.10;99.90;;;;;;5045381;28;20155;-72
2023/07/23 11:17:02;;;;;;;5.28;2.63;;;16.10;99.90;;;;;;5043185;28;20483;-72
2023/07/23 11:19:28;;;;;;;5.78;2.70;;;16.20;99.90;;;;;;5076666;28;20044;-72
2023/07/23 11:21:59;;;;;;;3.70;1.70;;;16.20;99.90;;;;;;5043717;28;21488;-72
2023/07/23 11:24:26;;;;;;;5.18;2.03;;;16.20;99.90;;;;;;5073414;28;20048;-72
2023/07/23 11:26:55;;;;;;;4.93;1.88;;;16.20;99.90;;;;;;5041208;28;20056;-72
2023/07/23 11:29:23;;;;;;;4.95;2.13;;;16.20;99.90;;;;;;5044535;28;20127;-72
2023/07/23 11:31:51;;;;;;;4.35;2.13;;;16.20;99.90;;;;;;5042799;28;20033;-72
2023/07/23 11:34:17;;;;;;;4.60;2.15;;;16.20;99.90;;;;;;5045697;28;20021;-72
2023/07/23 11:36:43;;;;;;;6.20;2.47;;;16.20;99.90;;;;;;5075559;28;20040;-72
2023/07/23 11:39:09;;;;;;;5.25;2.15;;;16.20;99.90;;;;;;5043843;28;20044;-72
2023/07/23 11:41:41;;;;;;;6.43;2.10;;;16.20;99.90;;;;;;5043394;28;20045;-72
2023/07/23 11:44:08;;;;;;;4.93;2.50;;;16.30;99.90;;;;;;5042114;28;20518;-72
2023/07/23 11:46:38;;;;;;;5.55;2.30;;;16.30;99.90;;;;;;5042557;28;20053;-72
2023/07/23 11:49:09;;;;;;;8.55;2.38;;;16.30;99.90;;;;;;5039542;28;20547;-72
2023/07/23 11:51:37;;;;;;;6.65;2.58;;;16.30;99.90;;;;;;5038724;28;20383;-72
2023/07/23 11:54:10;;;;;;;5.07;2.50;;;16.30;99.90;;;;;;5044335;28;20037;-72
2023/07/23 11:56:38;;;;;;;6.43;2.45;;;16.30;99.90;;;;;;5036833;28;20059;-72
2023/07/23 11:59:05;;;;;;;4.38;2.50;;;16.30;99.90;;;;;;5024186;28;21579;-72
2023/07/23 12:01:32;;;;;;;5.47;2.15;;;16.40;99.90;;;;;;5040048;28;20040;-72
2023/07/23 12:04:03;;;;;;;4.70;2.10;;;16.40;99.90;;;;;;5023872;28;20033;-72
2023/07/23 12:06:33;;;;;;;4.80;2.10;;;16.40;99.90;;;;;;5042442;28;20438;-72
2023/07/23 12:08:59;;;;;;;4.55;2.15;;;16.40;99.90;;;;;;5046463;28;20051;-72
2023/07/23 12:11:32;;;;;;;6.20;2.50;;;16.40;99.90;;;;;;5025857;28;20309;-72
2023/07/23 12:14:04;;;;;;;6.45;2.70;;;16.50;99.90;;;;;;5040846;28;20029;-72
2023/07/23 12:16:34;;;;;;;5.72;2.80;;;16.50;99.90;;;;;;5041172;28;20039;-72
2023/07/23 12:19:13;;;;;;;5.20;2.22;;;16.50;99.90;;;;;;5022397;28;20036;-72
2023/07/23 12:21:40;;;;;;;5.40;2.00;;;16.50;99.90;;;;;;5041093;28;20475;-72
2023/07/23 12:24:21;;;;;;;4.53;1.73;;;16.50;99.90;;;;;;5044173;28;20343;-72
2023/07/23 12:26:50;;;;;;;5.47;1.70;;;16.60;99.90;;;;;;5037207;28;20098;-72
2023/07/23 12:29:16;;;;;;;6.53;2.10;;;16.60;99.90;;;;;;5043466;28;20403;-72
2023/07/23 12:31:45;;;;;;;6.97;2.03;;;16.60;99.90;;;;;;5042551;28;20402;-72
2023/07/23 12:34:11;;;;;;;4.72;2.30;;;16.70;99.90;;;;;;5041420;28;20045;-72
2023/07/23 12:36:37;;;;;;;3.60;1.52;;;16.70;99.90;;;;;;5040333;28;20041;-72
2023/07/23 12:39:05;;;;;;;5.60;2.00;;;16.80;99.90;;;;;;5043300;28;20029;-72
2023/07/23 12:41:30;;;;;;;4.00;1.75;;;16.80;99.90;;;;;;5042030;28;20483;-72
2023/07/23 12:43:56;;;;;;;5.35;2.30;;;16.80;99.90;;;;;;5039599;28;20045;-72
2023/07/23 12:46:22;;;;;;;4.82;1.80;;;16.80;99.90;;;;;;5042118;28;20043;-72